Sturgis, SD (57785)

7:21 PM MDT on August 27, 2015 (GMT -0600)
Elk Creek Village | | Change Station
CLOSE
Current Station
Personal Weather Station
Location: Piedmont, SD
Elevation: 3576 ft
Nearby Weather Stations

Elev 3576 ft 44.24 °N, 103.40 °W | Updated 1 second ago

Partly Cloudy
Partly Cloudy
70.5 °F
Feels Like 75 °F
N
0.0
Wind Variable Wind from North
Gusts 1.0 mph

Today
High -- | Low -- °F
--% Chance of Precip.
Yesterday
High -- | Low -- °F
Precip. -- in
6:10 AM 7:39 PM
Waxing Gibbous, 96% visible
Pressure 30.02 in
Visibility 10.0 miles
Clouds Clear
Heat Index 75 °F
Dew Point 58 °F
Humidity 64%
Rainfall 0.07 in
Snow Depth Not available.
UV 0 out of 12
Pollen 7.10 out of 12
Air Quality Not available.
Flu Activity Not available.
METAR KSPF 280055Z AUTO 19006KT 10SM CLR 20/17 A3002 RMK AO2 LTG DSNT NE AND W
Pressure 30.02 in
Visibility 10.0 miles
Clouds Clear
Heat Index 75 °F
Dew Point 58 °F
Humidity 64%
Rainfall 0.07 in
Snow Depth Not available.
UV 0 out of 12
Pollen 7.10 out of 12
Air Quality Not available.
Flu Activity Not available.
METAR KSPF 280055Z AUTO 19006KT 10SM CLR 20/17 A3002 RMK AO2 LTG DSNT NE AND W

10-Day Weather Forecast

×

Almanac

Astronomy

Aug. 27, 2015 Rise Set
Actual Time
Civil Twilight
Nautical Twilight
Astronomical Twilight
Moon
Length of Visible Light
Length of Day
Tomorrow will be .
, % of the Moon is Illuminated

Today's Extremes

State Highs State Lows

Community

WunderPhotos

Upload Photos

1,850,297 photos uploaded!

WunderBlogs® & News

Nearby

Air Quality

  Air Quality AQ Index Pollutant
Not available.

Snow Depth

Station Depth Elevation

Earthquake Activity

City Distance Mag. Time & Date
Minimum magnitude displayed is 2.5.

Coastal Water Temperatures

Place Temperature

Stations

Nearby Weather Stations

Station Location Temp. Windchill Dew Point Humidity Wind Precip. Elev Updated Type